PWSweather.com
Personal Weather Stations
Station Observations
WD4JKH
Forsyth, GA 31029

Forsyth, GA 31029

Lat: 33.033225, Lon: -83.927995

Elevation: 709

Station Type: Davis Vantage VUE

High Low Average
Temperature 83.1°F28.4°C 64.3°F17.9°C 72.7°F22.6°C
Dew Point 66.9°F19.4°C 62.7°F17.1°C 64.6°F18.1°C
Winds 6.8 mph 10.9 kmh Calm Calm 3.0 mph SE4.8 kmh SE
Wind Gusts 16.0 mph25.7 kmh 2.0 mph3.2 kmh 8.0 mph12.9 kmh
Humidity 96% 51% 77%
Pressure 30.06 in1017.9 mb 29.96 in1014.6 mb -
Precipitation 0.14 in3.6 mm - -
Hour Temp Dew Point Humidity Winds Wind Gusts Pressure Precip Precip Rate Daily Precip Total
12:02 AM 72.9°F22.7°C 65.0°F18.3°C 76% 3.6 mph SE5.8 kmh SE 13.0 mph20.9 kmh 30.03 in1016.9 mb 0.00 in0.0 mm 0.00 in0.0 mm 0.00 in0.0 mm
12:07 AM 72.9°F22.7°C 65.0°F18.3°C 76% 4.3 mph SE6.9 kmh SE 13.0 mph20.9 kmh 30.04 in1017.3 mb 0.00 in0.0 mm 0.00 in0.0 mm 0.00 in0.0 mm
12:12 AM 72.9°F22.7°C 65.0°F18.3°C 76% 3.7 mph SE6.0 kmh SE 13.0 mph20.9 kmh 30.04 in1017.3 mb 0.00 in0.0 mm 0.00 in0.0 mm 0.00 in0.0 mm
12:17 AM 72.8°F22.7°C 64.9°F18.3°C 76% 4.1 mph SE6.6 kmh SE 13.0 mph20.9 kmh 30.04 in1017.3 mb 0.00 in0.0 mm 0.00 in0.0 mm 0.00 in0.0 mm
12:22 AM 72.7°F22.6°C 64.8°F18.2°C 76% 3.8 mph SE6.1 kmh SE 13.0 mph20.9 kmh 30.04 in1017.3 mb 0.00 in0.0 mm 0.00 in0.0 mm 0.00 in0.0 mm
12:27 AM 72.6°F22.6°C 64.7°F18.2°C 76% 3.4 mph SE5.5 kmh SE 9.0 mph14.5 kmh 30.03 in1016.9 mb 0.00 in0.0 mm 0.00 in0.0 mm 0.00 in0.0 mm
12:32 AM 72.5°F22.5°C 64.6°F18.1°C 76% 3.5 mph SE5.6 kmh SE 10.0 mph16.1 kmh 30.03 in1016.9 mb 0.00 in0.0 mm 0.00 in0.0 mm 0.00 in0.0 mm
12:37 AM 72.4°F22.4°C 64.5°F18.1°C 76% 4.9 mph SE7.9 kmh SE 11.0 mph17.7 kmh 30.03 in1016.9 mb 0.00 in0.0 mm 0.00 in0.0 mm 0.00 in0.0 mm
12:42 AM 72.3°F22.4°C 64.7°F18.2°C 77% 4.9 mph SSE7.9 kmh SSE 16.0 mph25.7 kmh 30.03 in1016.9 mb 0.00 in0.0 mm 0.00 in0.0 mm 0.00 in0.0 mm
12:47 AM 72.2°F22.3°C 64.7°F18.2°C 77% 4.2 mph SE6.8 kmh SE 16.0 mph25.7 kmh 30.04 in1017.3 mb 0.00 in0.0 mm 0.00 in0.0 mm 0.00 in0.0 mm
12:52 AM 72.1°F22.3°C 64.6°F18.1°C 77% 2.0 mph SE3.2 kmh SE 16.0 mph25.7 kmh 30.04 in1017.3 mb 0.00 in0.0 mm 0.00 in0.0 mm 0.00 in0.0 mm
12:57 AM 72.0°F22.2°C 64.4°F18.0°C 77% 4.0 mph SE6.4 kmh SE 16.0 mph25.7 kmh 30.05 in1017.6 mb 0.00 in0.0 mm 0.00 in0.0 mm 0.00 in0.0 mm
01:02 AM 71.8°F22.1°C 64.6°F18.1°C 78% 3.0 mph SE4.8 kmh SE 10.0 mph16.1 kmh 30.05 in1017.6 mb 0.00 in0.0 mm 0.00 in0.0 mm 0.00 in0.0 mm
01:07 AM 71.8°F22.1°C 64.7°F18.2°C 78% 3.1 mph SE5.0 kmh SE 10.0 mph16.1 kmh 30.05 in1017.6 mb 0.00 in0.0 mm 0.00 in0.0 mm 0.00 in0.0 mm
01:12 AM 71.7°F22.1°C 64.6°F18.1°C 78% 3.4 mph SE5.5 kmh SE 9.0 mph14.5 kmh 30.05 in1017.6 mb 0.00 in0.0 mm 0.00 in0.0 mm 0.00 in0.0 mm
01:17 AM 71.6°F22.0°C 64.5°F18.1°C 78% 2.4 mph S3.9 kmh S 9.0 mph14.5 kmh 30.06 in1017.9 mb 0.00 in0.0 mm 0.00 in0.0 mm 0.00 in0.0 mm
01:22 AM 71.5°F21.9°C 64.6°F18.1°C 79% 3.9 mph SE6.3 kmh SE 7.0 mph11.3 kmh 30.06 in1017.9 mb 0.00 in0.0 mm 0.00 in0.0 mm 0.00 in0.0 mm
01:27 AM 71.5°F21.9°C 64.7°F18.2°C 79% 3.5 mph SE5.6 kmh SE 11.0 mph17.7 kmh 30.05 in1017.6 mb 0.00 in0.0 mm 0.00 in0.0 mm 0.00 in0.0 mm
01:32 AM 71.4°F21.9°C 64.6°F18.1°C 79% 2.2 mph SE3.5 kmh SE 11.0 mph17.7 kmh 30.05 in1017.6 mb 0.00 in0.0 mm 0.00 in0.0 mm 0.00 in0.0 mm
01:37 AM 71.3°F21.8°C 64.9°F18.3°C 80% 3.0 mph SE4.8 kmh SE 11.0 mph17.7 kmh 30.06 in1017.9 mb 0.00 in0.0 mm 0.00 in0.0 mm 0.00 in0.0 mm
01:42 AM 71.1°F21.7°C 64.7°F18.2°C 80% 2.1 mph SE3.4 kmh SE 11.0 mph17.7 kmh 30.05 in1017.6 mb 0.00 in0.0 mm 0.00 in0.0 mm 0.00 in0.0 mm
01:47 AM 70.9°F21.6°C 64.5°F18.1°C 80% 1.6 mph SE2.6 kmh SE 7.0 mph11.3 kmh 30.06 in1017.9 mb 0.00 in0.0 mm 0.00 in0.0 mm 0.00 in0.0 mm
01:52 AM 70.8°F21.6°C 64.8°F18.2°C 81% 2.2 mph SE3.5 kmh SE 7.0 mph11.3 kmh 30.06 in1017.9 mb 0.00 in0.0 mm 0.00 in0.0 mm 0.00 in0.0 mm
01:57 AM 70.7°F21.5°C 64.7°F18.2°C 81% 1.5 mph SE2.4 kmh SE 7.0 mph11.3 kmh 30.06 in1017.9 mb 0.00 in0.0 mm 0.00 in0.0 mm 0.00 in0.0 mm
02:02 AM 70.6°F21.4°C 64.6°F18.1°C 81% 2.5 mph SE4.0 kmh SE 8.0 mph12.9 kmh 30.06 in1017.9 mb 0.00 in0.0 mm 0.00 in0.0 mm 0.00 in0.0 mm
02:07 AM 70.6°F21.4°C 64.6°F18.1°C 81% 3.5 mph SE5.6 kmh SE 8.0 mph12.9 kmh 30.06 in1017.9 mb 0.00 in0.0 mm 0.00 in0.0 mm 0.00 in0.0 mm
02:12 AM 70.5°F21.4°C 64.5°F18.1°C 81% 2.0 mph SE3.2 kmh SE 8.0 mph12.9 kmh 30.06 in1017.9 mb 0.00 in0.0 mm 0.00 in0.0 mm 0.00 in0.0 mm
02:17 AM 70.4°F21.3°C 64.7°F18.2°C 82% 2.7 mph SE4.3 kmh SE 8.0 mph12.9 kmh 30.06 in1017.9 mb 0.00 in0.0 mm 0.00 in0.0 mm 0.00 in0.0 mm
02:22 AM 70.3°F21.3°C 64.6°F18.1°C 82% 2.2 mph S3.5 kmh S 8.0 mph12.9 kmh 30.06 in1017.9 mb 0.00 in0.0 mm 0.00 in0.0 mm 0.00 in0.0 mm
02:27 AM 70.2°F21.2°C 64.5°F18.1°C 82% 2.5 mph SE4.0 kmh SE 6.0 mph9.7 kmh 30.06 in1017.9 mb 0.00 in0.0 mm 0.00 in0.0 mm 0.00 in0.0 mm
02:32 AM 70.1°F21.2°C 64.4°F18.0°C 82% 2.7 mph SE4.3 kmh SE 6.0 mph9.7 kmh 30.06 in1017.9 mb 0.00 in0.0 mm 0.00 in0.0 mm 0.00 in0.0 mm
02:37 AM 70.0°F21.1°C 64.2°F17.9°C 82% 2.2 mph SSE3.5 kmh SSE 6.0 mph9.7 kmh 30.06 in1017.9 mb 0.00 in0.0 mm 0.00 in0.0 mm 0.00 in0.0 mm
02:42 AM 69.9°F21.1°C 64.2°F17.9°C 82% 2.4 mph SE3.9 kmh SE 10.0 mph16.1 kmh 30.06 in1017.9 mb 0.00 in0.0 mm 0.00 in0.0 mm 0.00 in0.0 mm
02:47 AM 69.9°F21.1°C 64.5°F18.1°C 83% 2.7 mph SE4.3 kmh SE 10.0 mph16.1 kmh 30.06 in1017.9 mb 0.00 in0.0 mm 0.00 in0.0 mm 0.00 in0.0 mm
02:52 AM 69.8°F21.0°C 64.5°F18.1°C 83% 1.7 mph SSE2.7 kmh SSE 10.0 mph16.1 kmh 30.06 in1017.9 mb 0.00 in0.0 mm 0.00 in0.0 mm 0.00 in0.0 mm
02:57 AM 69.6°F20.9°C 64.3°F17.9°C 83% 3.8 mph SSE6.1 kmh SSE 8.0 mph12.9 kmh 30.05 in1017.6 mb 0.00 in0.0 mm 0.00 in0.0 mm 0.00 in0.0 mm
03:02 AM 69.5°F20.8°C 64.2°F17.9°C 83% 2.8 mph SE4.5 kmh SE 8.0 mph12.9 kmh 30.05 in1017.6 mb 0.00 in0.0 mm 0.00 in0.0 mm 0.00 in0.0 mm
03:07 AM 69.4°F20.8°C 64.4°F18.0°C 84% 2.2 mph SE3.5 kmh SE 8.0 mph12.9 kmh 30.05 in1017.6 mb 0.00 in0.0 mm 0.00 in0.0 mm 0.00 in0.0 mm
03:12 AM 69.2°F20.7°C 64.2°F17.9°C 84% 2.7 mph SE4.3 kmh SE 8.0 mph12.9 kmh 30.05 in1017.6 mb 0.00 in0.0 mm 0.00 in0.0 mm 0.00 in0.0 mm
03:17 AM 69.1°F20.6°C 64.1°F17.8°C 84% 3.7 mph SE6.0 kmh SE 9.0 mph14.5 kmh 30.05 in1017.6 mb 0.00 in0.0 mm 0.00 in0.0 mm 0.00 in0.0 mm
03:22 AM 68.9°F20.5°C 64.2°F17.9°C 85% 1.9 mph SE3.1 kmh SE 9.0 mph14.5 kmh 30.05 in1017.6 mb 0.00 in0.0 mm 0.00 in0.0 mm 0.00 in0.0 mm
03:27 AM 68.8°F20.4°C 64.1°F17.8°C 85% 1.5 mph SE2.4 kmh SE 9.0 mph14.5 kmh 30.05 in1017.6 mb 0.00 in0.0 mm 0.00 in0.0 mm 0.00 in0.0 mm
03:32 AM 68.6°F20.3°C 63.9°F17.7°C 85% 3.7 mph SE6.0 kmh SE 7.0 mph11.3 kmh 30.05 in1017.6 mb 0.00 in0.0 mm 0.00 in0.0 mm 0.00 in0.0 mm
03:37 AM 68.5°F20.3°C 64.2°F17.9°C 86% 2.7 mph SE4.3 kmh SE 6.0 mph9.7 kmh 30.05 in1017.6 mb 0.00 in0.0 mm 0.00 in0.0 mm 0.00 in0.0 mm
03:42 AM 68.4°F20.2°C 64.1°F17.8°C 86% 2.1 mph SE3.4 kmh SE 6.0 mph9.7 kmh 30.05 in1017.6 mb 0.00 in0.0 mm 0.00 in0.0 mm 0.00 in0.0 mm
03:46 AM 68.3°F20.2°C 64.0°F17.8°C 86% 2.1 mph SE3.4 kmh SE 9.0 mph14.5 kmh 30.05 in1017.6 mb 0.00 in0.0 mm 0.00 in0.0 mm 0.00 in0.0 mm
03:51 AM 68.3°F20.2°C 64.0°F17.8°C 86% 2.5 mph SE4.0 kmh SE 10.0 mph16.1 kmh 30.05 in1017.6 mb 0.00 in0.0 mm 0.00 in0.0 mm 0.00 in0.0 mm
03:56 AM 68.2°F20.1°C 63.9°F17.7°C 86% 3.8 mph SE6.1 kmh SE 10.0 mph16.1 kmh 30.04 in1017.3 mb 0.00 in0.0 mm 0.00 in0.0 mm 0.00 in0.0 mm
04:01 AM 68.1°F20.1°C 64.1°F17.8°C 87% 3.2 mph SSE5.1 kmh SSE 10.0 mph16.1 kmh 30.04 in1017.3 mb 0.00 in0.0 mm 0.00 in0.0 mm 0.00 in0.0 mm
04:06 AM 68.0°F20.0°C 64.0°F17.8°C 87% 2.5 mph SE4.0 kmh SE 8.0 mph12.9 kmh 30.04 in1017.3 mb 0.00 in0.0 mm 0.00 in0.0 mm 0.00 in0.0 mm
04:11 AM 68.0°F20.0°C 64.0°F17.8°C 87% 2.7 mph SSE4.3 kmh SSE 8.0 mph12.9 kmh 30.04 in1017.3 mb 0.00 in0.0 mm 0.00 in0.0 mm 0.00 in0.0 mm
04:16 AM 67.9°F19.9°C 63.9°F17.7°C 87% 2.5 mph SE4.0 kmh SE 7.0 mph11.3 kmh 30.04 in1017.3 mb 0.00 in0.0 mm 0.00 in0.0 mm 0.00 in0.0 mm
04:21 AM 67.8°F19.9°C 63.8°F17.7°C 87% 2.7 mph SE4.3 kmh SE 9.0 mph14.5 kmh 30.04 in1017.3 mb 0.00 in0.0 mm 0.00 in0.0 mm 0.00 in0.0 mm
04:26 AM 67.7°F19.8°C 63.7°F17.6°C 87% 1.9 mph SE3.1 kmh SE 9.0 mph14.5 kmh 30.04 in1017.3 mb 0.00 in0.0 mm 0.00 in0.0 mm 0.00 in0.0 mm
04:31 AM 67.6°F19.8°C 63.9°F17.7°C 88% 2.3 mph SSE3.7 kmh SSE 9.0 mph14.5 kmh 30.04 in1017.3 mb 0.00 in0.0 mm 0.00 in0.0 mm 0.00 in0.0 mm
04:36 AM 67.6°F19.8°C 63.9°F17.7°C 88% 2.8 mph SSE4.5 kmh SSE 9.0 mph14.5 kmh 30.04 in1017.3 mb 0.00 in0.0 mm 0.00 in0.0 mm 0.00 in0.0 mm
04:41 AM 67.5°F19.7°C 63.8°F17.7°C 88% 2.6 mph SE4.2 kmh SE 7.0 mph11.3 kmh 30.04 in1017.3 mb 0.00 in0.0 mm 0.00 in0.0 mm 0.00 in0.0 mm
04:46 AM 67.4°F19.7°C 63.7°F17.6°C 88% 2.2 mph SE3.5 kmh SE 8.0 mph12.9 kmh 30.04 in1017.3 mb 0.00 in0.0 mm 0.00 in0.0 mm 0.00 in0.0 mm
04:51 AM 67.3°F19.6°C 63.9°F17.7°C 89% 2.1 mph S3.4 kmh S 8.0 mph12.9 kmh 30.04 in1017.3 mb 0.00 in0.0 mm 0.00 in0.0 mm 0.00 in0.0 mm
04:56 AM 67.1°F19.5°C 63.7°F17.6°C 89% 2.1 mph ESE3.4 kmh ESE 8.0 mph12.9 kmh 30.04 in1017.3 mb 0.00 in0.0 mm 0.00 in0.0 mm 0.00 in0.0 mm
05:01 AM 67.0°F19.4°C 63.6°F17.6°C 89% 1.0 mph SSE1.6 kmh SSE 8.0 mph12.9 kmh 30.05 in1017.6 mb 0.00 in0.0 mm 0.00 in0.0 mm 0.00 in0.0 mm
05:06 AM 66.9°F19.4°C 63.9°F17.7°C 90% 1.7 mph SE2.7 kmh SE 6.0 mph9.7 kmh 30.05 in1017.6 mb 0.00 in0.0 mm 0.00 in0.0 mm 0.00 in0.0 mm
05:11 AM 66.7°F19.3°C 63.7°F17.6°C 90% 1.3 mph SE2.1 kmh SE 5.0 mph8.0 kmh 30.05 in1017.6 mb 0.00 in0.0 mm 0.00 in0.0 mm 0.00 in0.0 mm
05:16 AM 66.6°F19.2°C 63.6°F17.6°C 90% 2.0 mph SSE3.2 kmh SSE 5.0 mph8.0 kmh 30.05 in1017.6 mb 0.00 in0.0 mm 0.00 in0.0 mm 0.00 in0.0 mm
05:21 AM 66.6°F19.2°C 63.6°F17.6°C 90% 1.1 mph SE1.8 kmh SE 5.0 mph8.0 kmh 30.05 in1017.6 mb 0.00 in0.0 mm 0.00 in0.0 mm 0.00 in0.0 mm
05:26 AM 66.5°F19.2°C 63.8°F17.7°C 91% 1.5 mph SE2.4 kmh SE 5.0 mph8.0 kmh 30.06 in1017.9 mb 0.00 in0.0 mm 0.00 in0.0 mm 0.00 in0.0 mm
05:31 AM 66.4°F19.1°C 63.7°F17.6°C 91% 1.1 mph SSE1.8 kmh SSE 5.0 mph8.0 kmh 30.06 in1017.9 mb 0.00 in0.0 mm 0.00 in0.0 mm 0.00 in0.0 mm
05:36 AM 66.2°F19.0°C 63.5°F17.5°C 91% 1.0 mph SE1.6 kmh SE 5.0 mph8.0 kmh 30.06 in1017.9 mb 0.00 in0.0 mm 0.00 in0.0 mm 0.00 in0.0 mm
05:41 AM 66.2°F19.0°C 63.5°F17.5°C 91% 1.1 mph SE1.8 kmh SE 5.0 mph8.0 kmh 30.06 in1017.9 mb 0.00 in0.0 mm 0.00 in0.0 mm 0.00 in0.0 mm
05:46 AM 66.1°F18.9°C 63.4°F17.4°C 91% 2.1 mph SE3.4 kmh SE 4.0 mph6.4 kmh 30.06 in1017.9 mb 0.00 in0.0 mm 0.00 in0.0 mm 0.00 in0.0 mm
05:51 AM 66.0°F18.9°C 63.6°F17.6°C 92% 1.7 mph SE2.7 kmh SE 4.0 mph6.4 kmh 30.06 in1017.9 mb 0.00 in0.0 mm 0.00 in0.0 mm 0.00 in0.0 mm
05:56 AM 65.9°F18.8°C 63.5°F17.5°C 92% 1.6 mph SE2.6 kmh SE 4.0 mph6.4 kmh 30.05 in1017.6 mb 0.00 in0.0 mm 0.00 in0.0 mm 0.00 in0.0 mm
06:01 AM 65.8°F18.8°C 63.4°F17.4°C 92% 1.3 mph SE2.1 kmh SE 5.0 mph8.0 kmh 30.06 in1017.9 mb 0.00 in0.0 mm 0.00 in0.0 mm 0.00 in0.0 mm
06:06 AM 65.7°F18.7°C 63.3°F17.4°C 92% 2.1 mph SE3.4 kmh SE 5.0 mph8.0 kmh 30.06 in1017.9 mb 0.00 in0.0 mm 0.00 in0.0 mm 0.00 in0.0 mm
06:11 AM 65.7°F18.7°C 63.3°F17.4°C 92% 2.2 mph SE3.5 kmh SE 5.0 mph8.0 kmh 30.06 in1017.9 mb 0.00 in0.0 mm 0.00 in0.0 mm 0.00 in0.0 mm
06:16 AM 65.6°F18.7°C 63.5°F17.5°C 93% 2.3 mph SE3.7 kmh SE 5.0 mph8.0 kmh 30.05 in1017.6 mb 0.00 in0.0 mm 0.00 in0.0 mm 0.00 in0.0 mm
06:21 AM 65.6°F18.7°C 63.5°F17.5°C 93% 3.6 mph SE5.8 kmh SE 5.0 mph8.0 kmh 30.05 in1017.6 mb 0.00 in0.0 mm 0.00 in0.0 mm 0.00 in0.0 mm
06:26 AM 65.5°F18.6°C 63.4°F17.4°C 93% 2.0 mph SE3.2 kmh SE 5.0 mph8.0 kmh 30.05 in1017.6 mb 0.00 in0.0 mm 0.00 in0.0 mm 0.00 in0.0 mm
06:31 AM 65.4°F18.6°C 63.3°F17.4°C 93% 2.3 mph SE3.7 kmh SE 5.0 mph8.0 kmh 30.05 in1017.6 mb 0.00 in0.0 mm 0.00 in0.0 mm 0.00 in0.0 mm
06:36 AM 65.3°F18.5°C 63.2°F17.3°C 93% 2.3 mph ESE3.7 kmh ESE 6.0 mph9.7 kmh 30.05 in1017.6 mb 0.00 in0.0 mm 0.00 in0.0 mm 0.00 in0.0 mm
06:41 AM 65.2°F18.4°C 63.1°F17.3°C 93% 2.7 mph ESE4.3 kmh ESE 6.0 mph9.7 kmh 30.05 in1017.6 mb 0.00 in0.0 mm 0.00 in0.0 mm 0.00 in0.0 mm
06:46 AM 65.2°F18.4°C 63.1°F17.3°C 93% 1.8 mph ESE2.9 kmh ESE 6.0 mph9.7 kmh 30.05 in1017.6 mb 0.00 in0.0 mm 0.00 in0.0 mm 0.00 in0.0 mm
06:51 AM 65.1°F18.4°C 63.0°F17.2°C 93% 1.6 mph E2.6 kmh E 4.0 mph6.4 kmh 30.05 in1017.6 mb 0.00 in0.0 mm 0.00 in0.0 mm 0.00 in0.0 mm
06:56 AM 64.9°F18.3°C 62.8°F17.1°C 93% 1.5 mph E2.4 kmh E 4.0 mph6.4 kmh 30.05 in1017.6 mb 0.00 in0.0 mm 0.00 in0.0 mm 0.00 in0.0 mm
07:01 AM 64.7°F18.2°C 62.9°F17.2°C 94% 1.6 mph ESE2.6 kmh ESE 4.0 mph6.4 kmh 30.05 in1017.6 mb 0.00 in0.0 mm 0.00 in0.0 mm 0.00 in0.0 mm
07:06 AM 64.6°F18.1°C 62.8°F17.1°C 94% 1.1 mph ESE1.8 kmh ESE 4.0 mph6.4 kmh 30.05 in1017.6 mb 0.00 in0.0 mm 0.00 in0.0 mm 0.00 in0.0 mm
07:11 AM 64.5°F18.1°C 62.7°F17.1°C 94% 1.9 mph ESE3.1 kmh ESE 4.0 mph6.4 kmh 30.05 in1017.6 mb 0.00 in0.0 mm 0.00 in0.0 mm 0.00 in0.0 mm
07:16 AM 64.5°F18.1°C 62.7°F17.1°C 94% 2.2 mph ESE3.5 kmh ESE 5.0 mph8.0 kmh 30.05 in1017.6 mb 0.00 in0.0 mm 0.00 in0.0 mm 0.00 in0.0 mm
07:21 AM 64.4°F18.0°C 62.9°F17.2°C 95% 2.3 mph SE3.7 kmh SE 5.0 mph8.0 kmh 30.05 in1017.6 mb 0.00 in0.0 mm 0.00 in0.0 mm 0.00 in0.0 mm
07:26 AM 64.4°F18.0°C 62.9°F17.2°C 95% 2.6 mph SE4.2 kmh SE 5.0 mph8.0 kmh 30.06 in1017.9 mb 0.00 in0.0 mm 0.00 in0.0 mm 0.00 in0.0 mm
07:31 AM 64.3°F17.9°C 62.8°F17.1°C 95% 1.6 mph SE2.6 kmh SE 5.0 mph8.0 kmh 30.05 in1017.6 mb 0.00 in0.0 mm 0.00 in0.0 mm 0.00 in0.0 mm
07:36 AM 64.3°F17.9°C 62.8°F17.1°C 95% 2.3 mph ESE3.7 kmh ESE 5.0 mph8.0 kmh 30.06 in1017.9 mb 0.00 in0.0 mm 0.00 in0.0 mm 0.00 in0.0 mm
07:41 AM 64.3°F17.9°C 62.8°F17.1°C 95% 1.6 mph SE2.6 kmh SE 5.0 mph8.0 kmh 30.06 in1017.9 mb 0.00 in0.0 mm 0.00 in0.0 mm 0.00 in0.0 mm
07:46 AM 64.3°F17.9°C 62.8°F17.1°C 95% 2.8 mph ESE4.5 kmh ESE 5.0 mph8.0 kmh 30.06 in1017.9 mb 0.00 in0.0 mm 0.00 in0.0 mm 0.00 in0.0 mm
07:51 AM 64.4°F18.0°C 62.9°F17.2°C 95% 2.1 mph SE3.4 kmh SE 5.0 mph8.0 kmh 30.06 in1017.9 mb 0.00 in0.0 mm 0.00 in0.0 mm 0.00 in0.0 mm
07:56 AM 64.5°F18.1°C 63.0°F17.2°C 95% 1.9 mph SE3.1 kmh SE 5.0 mph8.0 kmh 30.06 in1017.9 mb 0.00 in0.0 mm 0.00 in0.0 mm 0.00 in0.0 mm
08:01 AM 64.6°F18.1°C 63.1°F17.3°C 95% 1.3 mph SE2.1 kmh SE 7.0 mph11.3 kmh 30.06 in1017.9 mb 0.00 in0.0 mm 0.00 in0.0 mm 0.00 in0.0 mm
08:06 AM 64.9°F18.3°C 63.4°F17.4°C 95% 2.2 mph SE3.5 kmh SE 7.0 mph11.3 kmh 30.06 in1017.9 mb 0.00 in0.0 mm 0.00 in0.0 mm 0.00 in0.0 mm
08:11 AM 65.1°F18.4°C 63.3°F17.4°C 94% 3.6 mph SE5.8 kmh SE 8.0 mph12.9 kmh 30.06 in1017.9 mb 0.00 in0.0 mm 0.00 in0.0 mm 0.00 in0.0 mm
08:16 AM 65.3°F18.5°C 63.5°F17.5°C 94% 2.4 mph ESE3.9 kmh ESE 8.0 mph12.9 kmh 30.06 in1017.9 mb 0.00 in0.0 mm 0.00 in0.0 mm 0.00 in0.0 mm
08:21 AM 65.6°F18.7°C 63.8°F17.7°C 94% 2.2 mph SE3.5 kmh SE 8.0 mph12.9 kmh 30.06 in1017.9 mb 0.00 in0.0 mm 0.00 in0.0 mm 0.00 in0.0 mm
08:26 AM 66.2°F19.0°C 64.1°F17.8°C 93% 1.4 mph SSE2.3 kmh SSE 8.0 mph12.9 kmh 30.06 in1017.9 mb 0.00 in0.0 mm 0.00 in0.0 mm 0.00 in0.0 mm
08:31 AM 66.9°F19.4°C 64.5°F18.1°C 92% 1.5 mph SE2.4 kmh SE 6.0 mph9.7 kmh 30.06 in1017.9 mb 0.00 in0.0 mm 0.00 in0.0 mm 0.00 in0.0 mm
08:36 AM 67.7°F19.8°C 64.6°F18.1°C 90% 3.8 mph ESE6.1 kmh ESE 7.0 mph11.3 kmh 30.05 in1017.6 mb 0.00 in0.0 mm 0.00 in0.0 mm 0.00 in0.0 mm
08:41 AM 68.5°F20.3°C 65.1°F18.4°C 89% 2.0 mph SE3.2 kmh SE 7.0 mph11.3 kmh 30.05 in1017.6 mb 0.00 in0.0 mm 0.00 in0.0 mm 0.00 in0.0 mm
08:46 AM 69.3°F20.7°C 65.3°F18.5°C 87% 1.7 mph SSE2.7 kmh SSE 7.0 mph11.3 kmh 30.05 in1017.6 mb 0.00 in0.0 mm 0.00 in0.0 mm 0.00 in0.0 mm
08:51 AM 70.0°F21.1°C 65.6°F18.7°C 86% 2.2 mph SSE3.5 kmh SSE 7.0 mph11.3 kmh 30.06 in1017.9 mb 0.00 in0.0 mm 0.00 in0.0 mm 0.00 in0.0 mm
08:56 AM 70.3°F21.3°C 64.9°F18.3°C 83% 3.6 mph SE5.8 kmh SE 7.0 mph11.3 kmh 30.06 in1017.9 mb 0.00 in0.0 mm 0.00 in0.0 mm 0.00 in0.0 mm
09:01 AM 70.6°F21.4°C 65.5°F18.6°C 84% 2.4 mph ESE3.9 kmh ESE 7.0 mph11.3 kmh 30.06 in1017.9 mb 0.00 in0.0 mm 0.00 in0.0 mm 0.00 in0.0 mm
09:06 AM 71.0°F21.7°C 65.6°F18.7°C 83% 2.6 mph SSE4.2 kmh SSE 8.0 mph12.9 kmh 30.06 in1017.9 mb 0.00 in0.0 mm 0.00 in0.0 mm 0.00 in0.0 mm
09:11 AM 71.2°F21.8°C 65.8°F18.8°C 83% 2.8 mph SE4.5 kmh SE 8.0 mph12.9 kmh 30.06 in1017.9 mb 0.00 in0.0 mm 0.00 in0.0 mm 0.00 in0.0 mm
09:16 AM 71.2°F21.8°C 65.1°F18.4°C 81% 2.8 mph SE4.5 kmh SE 9.0 mph14.5 kmh 30.06 in1017.9 mb 0.00 in0.0 mm 0.00 in0.0 mm 0.00 in0.0 mm
09:21 AM 71.2°F21.8°C 65.1°F18.4°C 81% 3.3 mph SSE5.3 kmh SSE 9.0 mph14.5 kmh 30.06 in1017.9 mb 0.00 in0.0 mm 0.00 in0.0 mm 0.00 in0.0 mm
09:26 AM 71.2°F21.8°C 65.5°F18.6°C 82% 3.1 mph SSE5.0 kmh SSE 13.0 mph20.9 kmh 30.06 in1017.9 mb 0.00 in0.0 mm 0.00 in0.0 mm 0.00 in0.0 mm
09:31 AM 71.5°F21.9°C 65.8°F18.8°C 82% 3.6 mph SE5.8 kmh SE 13.0 mph20.9 kmh 30.06 in1017.9 mb 0.00 in0.0 mm 0.00 in0.0 mm 0.00 in0.0 mm
09:36 AM 71.4°F21.9°C 66.0°F18.9°C 83% 2.3 mph SSE3.7 kmh SSE 13.0 mph20.9 kmh 30.06 in1017.9 mb 0.00 in0.0 mm 0.00 in0.0 mm 0.00 in0.0 mm
09:41 AM 71.6°F22.0°C 65.9°F18.8°C 82% 3.1 mph SE5.0 kmh SE 13.0 mph20.9 kmh 30.06 in1017.9 mb 0.00 in0.0 mm 0.00 in0.0 mm 0.00 in0.0 mm
09:45 AM 71.7°F22.1°C 66.0°F18.9°C 82% 2.8 mph SSW4.5 kmh SSW 9.0 mph14.5 kmh 30.06 in1017.9 mb 0.00 in0.0 mm 0.00 in0.0 mm 0.00 in0.0 mm
09:50 AM 71.9°F22.2°C 66.2°F19.0°C 82% 2.1 mph SE3.4 kmh SE 9.0 mph14.5 kmh 30.06 in1017.9 mb 0.00 in0.0 mm 0.00 in0.0 mm 0.00 in0.0 mm
09:55 AM 72.1°F22.3°C 65.7°F18.7°C 80% 2.4 mph S3.9 kmh S 9.0 mph14.5 kmh 30.06 in1017.9 mb 0.00 in0.0 mm 0.00 in0.0 mm 0.00 in0.0 mm
10:00 AM 72.4°F22.4°C 65.6°F18.7°C 79% 3.3 mph SSE5.3 kmh SSE 8.0 mph12.9 kmh 30.06 in1017.9 mb 0.00 in0.0 mm 0.00 in0.0 mm 0.00 in0.0 mm
10:05 AM 72.6°F22.6°C 66.2°F19.0°C 80% 2.9 mph SE4.7 kmh SE 7.0 mph11.3 kmh 30.05 in1017.6 mb 0.00 in0.0 mm 0.00 in0.0 mm 0.00 in0.0 mm
10:10 AM 73.0°F22.8°C 66.2°F19.0°C 79% 5.0 mph SE8.0 kmh SE 8.0 mph12.9 kmh 30.05 in1017.6 mb 0.00 in0.0 mm 0.00 in0.0 mm 0.00 in0.0 mm
10:15 AM 73.2°F22.9°C 66.3°F19.1°C 79% 1.9 mph SE3.1 kmh SE 8.0 mph12.9 kmh 30.05 in1017.6 mb 0.00 in0.0 mm 0.00 in0.0 mm 0.00 in0.0 mm
10:20 AM 73.4°F23.0°C 65.4°F18.6°C 76% 4.4 mph S7.1 kmh S 9.0 mph14.5 kmh 30.05 in1017.6 mb 0.00 in0.0 mm 0.00 in0.0 mm 0.00 in0.0 mm
10:25 AM 73.2°F22.9°C 65.6°F18.7°C 77% 6.2 mph SE10.0 kmh SE 12.0 mph19.3 kmh 30.05 in1017.6 mb 0.00 in0.0 mm 0.00 in0.0 mm 0.00 in0.0 mm
10:30 AM 73.1°F22.8°C 65.9°F18.8°C 78% 2.6 mph SE4.2 kmh SE 12.0 mph19.3 kmh 30.05 in1017.6 mb 0.00 in0.0 mm 0.00 in0.0 mm 0.00 in0.0 mm
10:35 AM 73.7°F23.2°C 66.9°F19.4°C 79% 2.3 mph SSE3.7 kmh SSE 12.0 mph19.3 kmh 30.05 in1017.6 mb 0.00 in0.0 mm 0.00 in0.0 mm 0.00 in0.0 mm
10:40 AM 74.0°F23.3°C 66.1°F18.9°C 76% 4.3 mph ESE6.9 kmh ESE 12.0 mph19.3 kmh 30.05 in1017.6 mb 0.00 in0.0 mm 0.00 in0.0 mm 0.00 in0.0 mm
10:45 AM 73.9°F23.3°C 66.4°F19.1°C 77% 4.2 mph SE6.8 kmh SE 9.0 mph14.5 kmh 30.05 in1017.6 mb 0.00 in0.0 mm 0.00 in0.0 mm 0.00 in0.0 mm
10:50 AM 74.5°F23.6°C 66.9°F19.4°C 77% 3.3 mph S5.3 kmh S 9.0 mph14.5 kmh 30.05 in1017.6 mb 0.00 in0.0 mm 0.00 in0.0 mm 0.00 in0.0 mm
10:55 AM 74.9°F23.8°C 66.2°F19.0°C 74% 2.5 mph S4.0 kmh S 9.0 mph14.5 kmh 30.05 in1017.6 mb 0.00 in0.0 mm 0.00 in0.0 mm 0.00 in0.0 mm
11:00 AM 75.0°F23.9°C 66.3°F19.1°C 74% 5.3 mph SE8.5 kmh SE 9.0 mph14.5 kmh 30.05 in1017.6 mb 0.00 in0.0 mm 0.00 in0.0 mm 0.00 in0.0 mm
11:05 AM 74.7°F23.7°C 66.0°F18.9°C 74% 5.3 mph SE8.5 kmh SE 11.0 mph17.7 kmh 30.06 in1017.9 mb 0.00 in0.0 mm 0.00 in0.0 mm 0.00 in0.0 mm
11:10 AM 74.6°F23.7°C 66.3°F19.1°C 75% 5.7 mph SE9.2 kmh SE 11.0 mph17.7 kmh 30.06 in1017.9 mb 0.00 in0.0 mm 0.00 in0.0 mm 0.00 in0.0 mm
11:15 AM 74.7°F23.7°C 66.0°F18.9°C 74% 2.5 mph SE4.0 kmh SE 11.0 mph17.7 kmh 30.05 in1017.6 mb 0.00 in0.0 mm 0.00 in0.0 mm 0.00 in0.0 mm
11:20 AM 74.9°F23.8°C 66.4°F19.1°C 75% 1.5 mph S2.4 kmh S 11.0 mph17.7 kmh 30.06 in1017.9 mb 0.00 in0.0 mm 0.00 in0.0 mm 0.00 in0.0 mm
11:25 AM 75.3°F24.1°C 66.6°F19.2°C 74% 1.8 mph S2.9 kmh S 10.0 mph16.1 kmh 30.06 in1017.9 mb 0.00 in0.0 mm 0.00 in0.0 mm 0.00 in0.0 mm
11:30 AM 75.4°F24.1°C 66.3°F19.1°C 73% 2.3 mph SE3.7 kmh SE 8.0 mph12.9 kmh 30.05 in1017.6 mb 0.00 in0.0 mm 0.00 in0.0 mm 0.00 in0.0 mm
11:35 AM 75.3°F24.1°C 66.4°F19.1°C 74% 2.7 mph SE4.3 kmh SE 8.0 mph12.9 kmh 30.06 in1017.9 mb 0.00 in0.0 mm 0.00 in0.0 mm 0.00 in0.0 mm
11:40 AM 75.4°F24.1°C 66.3°F19.1°C 73% 4.0 mph SE6.4 kmh SE 8.0 mph12.9 kmh 30.06 in1017.9 mb 0.00 in0.0 mm 0.00 in0.0 mm 0.00 in0.0 mm
11:45 AM 75.6°F24.2°C 66.7°F19.3°C 74% 1.9 mph E3.1 kmh E 8.0 mph12.9 kmh 30.06 in1017.9 mb 0.00 in0.0 mm 0.00 in0.0 mm 0.00 in0.0 mm
11:50 AM 75.8°F24.3°C 65.9°F18.8°C 71% 4.2 mph SE6.8 kmh SE 8.0 mph12.9 kmh 30.06 in1017.9 mb 0.00 in0.0 mm 0.00 in0.0 mm 0.00 in0.0 mm
11:55 AM 76.2°F24.6°C 65.9°F18.8°C 70% 2.9 mph SE4.7 kmh SE 8.0 mph12.9 kmh 30.06 in1017.9 mb 0.00 in0.0 mm 0.00 in0.0 mm 0.00 in0.0 mm
12:00 PM 76.7°F24.8°C 66.4°F19.1°C 70% 2.6 mph SE4.2 kmh SE 8.0 mph12.9 kmh 30.05 in1017.6 mb 0.00 in0.0 mm 0.00 in0.0 mm 0.00 in0.0 mm
12:05 PM 76.4°F24.7°C 65.7°F18.7°C 69% 4.9 mph SE7.9 kmh SE 8.0 mph12.9 kmh 30.05 in1017.6 mb 0.00 in0.0 mm 0.00 in0.0 mm 0.00 in0.0 mm
12:10 PM 76.4°F24.7°C 66.5°F19.2°C 71% 2.6 mph SE4.2 kmh SE 9.0 mph14.5 kmh 30.06 in1017.9 mb 0.00 in0.0 mm 0.00 in0.0 mm 0.00 in0.0 mm
12:15 PM 76.8°F24.9°C 66.9°F19.4°C 71% 1.4 mph SSW2.3 kmh SSW 9.0 mph14.5 kmh 30.06 in1017.9 mb 0.00 in0.0 mm 0.00 in0.0 mm 0.00 in0.0 mm
12:20 PM 77.1°F25.1°C 66.1°F18.9°C 69% 2.2 mph SSW3.5 kmh SSW 9.0 mph14.5 kmh 30.06 in1017.9 mb 0.00 in0.0 mm 0.00 in0.0 mm 0.00 in0.0 mm
12:25 PM 77.6°F25.3°C 66.4°F19.1°C 68% 2.5 mph SE4.0 kmh SE 9.0 mph14.5 kmh 30.06 in1017.9 mb 0.00 in0.0 mm 0.00 in0.0 mm 0.00 in0.0 mm
12:30 PM 77.7°F25.4°C 65.7°F18.7°C 66% 3.2 mph SE5.1 kmh SE 7.0 mph11.3 kmh 30.05 in1017.6 mb 0.00 in0.0 mm 0.00 in0.0 mm 0.00 in0.0 mm
12:35 PM 77.6°F25.3°C 66.0°F18.9°C 67% 3.1 mph SE5.0 kmh SE 7.0 mph11.3 kmh 30.05 in1017.6 mb 0.00 in0.0 mm 0.00 in0.0 mm 0.00 in0.0 mm
12:40 PM 77.3°F25.2°C 64.4°F18.0°C 64% 4.6 mph SE7.4 kmh SE 10.0 mph16.1 kmh 30.05 in1017.6 mb 0.00 in0.0 mm 0.00 in0.0 mm 0.00 in0.0 mm
12:45 PM 77.5°F25.3°C 63.7°F17.6°C 62% 2.6 mph SE4.2 kmh SE 10.0 mph16.1 kmh 30.05 in1017.6 mb 0.00 in0.0 mm 0.00 in0.0 mm 0.00 in0.0 mm
12:50 PM 77.9°F25.5°C 64.7°F18.2°C 64% 2.8 mph SE4.5 kmh SE 10.0 mph16.1 kmh 30.05 in1017.6 mb 0.00 in0.0 mm 0.00 in0.0 mm 0.00 in0.0 mm
12:55 PM 78.2°F25.7°C 65.3°F18.5°C 64% 2.1 mph S3.4 kmh S 10.0 mph16.1 kmh 30.05 in1017.6 mb 0.00 in0.0 mm 0.00 in0.0 mm 0.00 in0.0 mm
01:00 PM 78.5°F25.8°C 64.6°F18.1°C 62% 4.3 mph SE6.9 kmh SE 8.0 mph12.9 kmh 30.04 in1017.3 mb 0.00 in0.0 mm 0.00 in0.0 mm 0.00 in0.0 mm
01:05 PM 79.0°F26.1°C 65.1°F18.4°C 62% 2.7 mph SE4.3 kmh SE 8.0 mph12.9 kmh 30.04 in1017.3 mb 0.00 in0.0 mm 0.00 in0.0 mm 0.00 in0.0 mm
01:10 PM 79.6°F26.4°C 65.2°F18.4°C 61% 2.7 mph SE4.3 kmh SE 8.0 mph12.9 kmh 30.04 in1017.3 mb 0.00 in0.0 mm 0.00 in0.0 mm 0.00 in0.0 mm
01:15 PM 79.6°F26.4°C 63.7°F17.6°C 58% 4.1 mph SSE6.6 kmh SSE 9.0 mph14.5 kmh 30.04 in1017.3 mb 0.00 in0.0 mm 0.00 in0.0 mm 0.00 in0.0 mm
01:20 PM 79.6°F26.4°C 64.5°F18.1°C 60% 2.5 mph SE4.0 kmh SE 9.0 mph14.5 kmh 30.03 in1016.9 mb 0.00 in0.0 mm 0.00 in0.0 mm 0.00 in0.0 mm
01:25 PM 79.4°F26.3°C 64.3°F17.9°C 60% 3.9 mph SE6.3 kmh SE 9.0 mph14.5 kmh 30.03 in1016.9 mb 0.00 in0.0 mm 0.00 in0.0 mm 0.00 in0.0 mm
01:30 PM 79.6°F26.4°C 64.7°F18.2°C 60% 2.8 mph S4.5 kmh S 9.0 mph14.5 kmh 30.03 in1016.9 mb 0.00 in0.0 mm 0.00 in0.0 mm 0.00 in0.0 mm
01:35 PM 79.8°F26.6°C 64.9°F18.3°C 60% 2.9 mph SE4.7 kmh SE 8.0 mph12.9 kmh 30.03 in1016.9 mb 0.00 in0.0 mm 0.00 in0.0 mm 0.00 in0.0 mm
01:40 PM 79.7°F26.5°C 64.8°F18.2°C 60% 4.7 mph SE7.6 kmh SE 11.0 mph17.7 kmh 30.02 in1016.6 mb 0.00 in0.0 mm 0.00 in0.0 mm 0.00 in0.0 mm
01:45 PM 79.6°F26.4°C 64.2°F17.9°C 59% 3.6 mph SE5.8 kmh SE 11.0 mph17.7 kmh 30.02 in1016.6 mb 0.00 in0.0 mm 0.00 in0.0 mm 0.00 in0.0 mm
01:50 PM 80.2°F26.8°C 65.8°F18.8°C 61% 1.7 mph S2.7 kmh S 11.0 mph17.7 kmh 30.02 in1016.6 mb 0.00 in0.0 mm 0.00 in0.0 mm 0.00 in0.0 mm
01:55 PM 80.6°F27.0°C 65.2°F18.4°C 59% 5.8 mph SE9.3 kmh SE 11.0 mph17.7 kmh 30.02 in1016.6 mb 0.00 in0.0 mm 0.00 in0.0 mm 0.00 in0.0 mm
02:00 PM 80.6°F27.0°C 64.9°F18.3°C 59% 6.1 mph ESE9.8 kmh ESE 11.0 mph17.7 kmh 30.01 in1016.3 mb 0.00 in0.0 mm 0.00 in0.0 mm 0.00 in0.0 mm
02:05 PM 80.4°F26.9°C 64.0°F17.8°C 57% 5.4 mph SE8.7 kmh SE 16.0 mph25.7 kmh 30.01 in1016.3 mb 0.00 in0.0 mm 0.00 in0.0 mm 0.00 in0.0 mm
02:10 PM 80.5°F26.9°C 63.9°F17.7°C 57% 4.8 mph SE7.7 kmh SE 16.0 mph25.7 kmh 30.01 in1016.3 mb 0.00 in0.0 mm 0.00 in0.0 mm 0.00 in0.0 mm
02:16 PM 80.9°F27.2°C 64.5°F18.1°C 57% 4.2 mph SE6.8 kmh SE 16.0 mph25.7 kmh 30.01 in1016.3 mb 0.00 in0.0 mm 0.00 in0.0 mm 0.00 in0.0 mm
02:21 PM 81.0°F27.2°C 64.5°F18.1°C 57% 3.8 mph SW6.1 kmh SW 13.0 mph20.9 kmh 30.01 in1016.3 mb 0.00 in0.0 mm 0.00 in0.0 mm 0.00 in0.0 mm
02:26 PM 81.6°F27.6°C 65.1°F18.4°C 57% 3.8 mph SE6.1 kmh SE 12.0 mph19.3 kmh 30.01 in1016.3 mb 0.00 in0.0 mm 0.00 in0.0 mm 0.00 in0.0 mm
02:31 PM 82.2°F27.9°C 64.1°F17.8°C 54% 3.6 mph SSE5.8 kmh SSE 11.0 mph17.7 kmh 30.01 in1016.3 mb 0.00 in0.0 mm 0.00 in0.0 mm 0.00 in0.0 mm
02:36 PM 82.1°F27.8°C 64.3°F17.9°C 55% 4.4 mph SE7.1 kmh SE 11.0 mph17.7 kmh 30.00 in1015.9 mb 0.00 in0.0 mm 0.00 in0.0 mm 0.00 in0.0 mm
02:41 PM 81.9°F27.7°C 64.3°F17.9°C 55% 2.6 mph S4.2 kmh S 12.0 mph19.3 kmh 30.00 in1015.9 mb 0.00 in0.0 mm 0.00 in0.0 mm 0.00 in0.0 mm
02:45 PM 81.9°F27.7°C 63.8°F17.7°C 54% 4.2 mph SE6.8 kmh SE 12.0 mph19.3 kmh 30.00 in1015.9 mb 0.00 in0.0 mm 0.00 in0.0 mm 0.00 in0.0 mm
02:50 PM 81.9°F27.7°C 64.9°F18.3°C 56% 4.3 mph ESE6.9 kmh ESE 12.0 mph19.3 kmh 30.00 in1015.9 mb 0.00 in0.0 mm 0.00 in0.0 mm 0.00 in0.0 mm
02:55 PM 82.2°F27.9°C 64.9°F18.3°C 56% 2.9 mph SSE4.7 kmh SSE 12.0 mph19.3 kmh 30.00 in1015.9 mb 0.00 in0.0 mm 0.00 in0.0 mm 0.00 in0.0 mm
03:00 PM 82.6°F28.1°C 63.9°F17.7°C 53% 3.9 mph SSE6.3 kmh SSE 10.0 mph16.1 kmh 30.01 in1016.3 mb 0.00 in0.0 mm 0.00 in0.0 mm 0.00 in0.0 mm
03:05 PM 82.2°F27.9°C 64.1°F17.8°C 54% 3.5 mph ESE5.6 kmh ESE 10.0 mph16.1 kmh 30.00 in1015.9 mb 0.00 in0.0 mm 0.00 in0.0 mm 0.00 in0.0 mm
03:10 PM 81.9°F27.7°C 64.1°F17.8°C 55% 3.5 mph SSE5.6 kmh SSE 10.0 mph16.1 kmh 30.00 in1015.9 mb 0.00 in0.0 mm 0.00 in0.0 mm 0.00 in0.0 mm
03:15 PM 81.5°F27.5°C 63.4°F17.4°C 54% 3.2 mph SSE5.1 kmh SSE 12.0 mph19.3 kmh 30.00 in1015.9 mb 0.00 in0.0 mm 0.00 in0.0 mm 0.00 in0.0 mm
03:20 PM 81.5°F27.5°C 62.9°F17.2°C 53% 6.8 mph SE10.9 kmh SE 13.0 mph20.9 kmh 30.00 in1015.9 mb 0.00 in0.0 mm 0.00 in0.0 mm 0.00 in0.0 mm
03:25 PM 81.3°F27.4°C 63.2°F17.3°C 54% 3.8 mph SE6.1 kmh SE 13.0 mph20.9 kmh 30.01 in1016.3 mb 0.00 in0.0 mm 0.00 in0.0 mm 0.00 in0.0 mm
03:30 PM 81.5°F27.5°C 62.9°F17.2°C 53% 3.8 mph SSE6.1 kmh SSE 13.0 mph20.9 kmh 30.01 in1016.3 mb 0.00 in0.0 mm 0.00 in0.0 mm 0.00 in0.0 mm
03:35 PM 81.7°F27.6°C 63.6°F17.6°C 54% 2.9 mph SE4.7 kmh SE 13.0 mph20.9 kmh 30.00 in1015.9 mb 0.00 in0.0 mm 0.00 in0.0 mm 0.00 in0.0 mm
03:40 PM 81.9°F27.7°C 64.3°F17.9°C 55% 2.4 mph SE3.9 kmh SE 9.0 mph14.5 kmh 30.00 in1015.9 mb 0.00 in0.0 mm 0.00 in0.0 mm 0.00 in0.0 mm
03:45 PM 82.2°F27.9°C 63.5°F17.5°C 53% 2.8 mph SE4.5 kmh SE 9.0 mph14.5 kmh 30.00 in1015.9 mb 0.00 in0.0 mm 0.00 in0.0 mm 0.00 in0.0 mm
03:50 PM 82.8°F28.2°C 65.0°F18.3°C 55% 2.4 mph SSE3.9 kmh SSE 9.0 mph14.5 kmh 30.00 in1015.9 mb 0.00 in0.0 mm 0.00 in0.0 mm 0.00 in0.0 mm
03:55 PM 83.1°F28.4°C 64.4°F18.0°C 53% 3.1 mph SE5.0 kmh SE 9.0 mph14.5 kmh 30.00 in1015.9 mb 0.00 in0.0 mm 0.00 in0.0 mm 0.00 in0.0 mm
04:00 PM 82.6°F28.1°C 63.9°F17.7°C 53% 3.3 mph SE5.3 kmh SE 10.0 mph16.1 kmh 29.99 in1015.6 mb 0.00 in0.0 mm 0.00 in0.0 mm 0.00 in0.0 mm
04:05 PM 82.7°F28.2°C 64.0°F17.8°C 53% 3.2 mph S5.1 kmh S 12.0 mph19.3 kmh 29.99 in1015.6 mb 0.00 in0.0 mm 0.00 in0.0 mm 0.00 in0.0 mm
04:10 PM 83.0°F28.3°C 63.7°F17.6°C 52% 2.5 mph SE4.0 kmh SE 12.0 mph19.3 kmh 29.99 in1015.6 mb 0.00 in0.0 mm 0.00 in0.0 mm 0.00 in0.0 mm
04:15 PM 83.0°F28.3°C 63.7°F17.6°C 52% 3.9 mph ESE6.3 kmh ESE 12.0 mph19.3 kmh 29.98 in1015.2 mb 0.00 in0.0 mm 0.00 in0.0 mm 0.00 in0.0 mm
04:20 PM 82.8°F28.2°C 63.4°F17.4°C 52% 3.0 mph S4.8 kmh S 12.0 mph19.3 kmh 29.98 in1015.2 mb 0.00 in0.0 mm 0.00 in0.0 mm 0.00 in0.0 mm
04:25 PM 83.1°F28.4°C 63.8°F17.7°C 52% 2.4 mph SE3.9 kmh SE 8.0 mph12.9 kmh 29.98 in1015.2 mb 0.00 in0.0 mm 0.00 in0.0 mm 0.00 in0.0 mm
04:30 PM 83.0°F28.3°C 63.6°F17.6°C 52% 3.9 mph SSE6.3 kmh SSE 14.0 mph22.5 kmh 29.98 in1015.2 mb 0.00 in0.0 mm 0.00 in0.0 mm 0.00 in0.0 mm
04:35 PM 83.1°F28.4°C 63.2°F17.3°C 51% 4.2 mph SE6.8 kmh SE 14.0 mph22.5 kmh 29.97 in1014.9 mb 0.00 in0.0 mm 0.00 in0.0 mm 0.00 in0.0 mm
04:40 PM 83.0°F28.3°C 64.8°F18.2°C 54% 1.5 mph SSW2.4 kmh SSW 14.0 mph22.5 kmh 29.97 in1014.9 mb 0.00 in0.0 mm 0.00 in0.0 mm 0.00 in0.0 mm
04:45 PM 82.6°F28.1°C 63.4°F17.4°C 52% 4.3 mph SE6.9 kmh SE 14.0 mph22.5 kmh 29.98 in1015.2 mb 0.00 in0.0 mm 0.00 in0.0 mm 0.00 in0.0 mm
04:50 PM 82.2°F27.9°C 64.6°F18.1°C 55% 2.7 mph SE4.3 kmh SE 7.0 mph11.3 kmh 29.97 in1014.9 mb 0.00 in0.0 mm 0.00 in0.0 mm 0.00 in0.0 mm
04:55 PM 82.2°F27.9°C 63.5°F17.5°C 53% 2.4 mph SSE3.9 kmh SSE 7.0 mph11.3 kmh 29.97 in1014.9 mb 0.00 in0.0 mm 0.00 in0.0 mm 0.00 in0.0 mm
05:00 PM 81.8°F27.7°C 63.0°F17.2°C 53% 4.2 mph SE6.8 kmh SE 7.0 mph11.3 kmh 29.97 in1014.9 mb 0.00 in0.0 mm 0.00 in0.0 mm 0.00 in0.0 mm
05:05 PM 81.6°F27.6°C 64.1°F17.8°C 55% 3.5 mph SE5.6 kmh SE 7.0 mph11.3 kmh 29.97 in1014.9 mb 0.00 in0.0 mm 0.00 in0.0 mm 0.00 in0.0 mm
05:10 PM 81.1°F27.3°C 64.1°F17.8°C 56% 3.6 mph ESE5.8 kmh ESE 7.0 mph11.3 kmh 29.97 in1014.9 mb 0.00 in0.0 mm 0.00 in0.0 mm 0.00 in0.0 mm
05:15 PM 80.9°F27.2°C 63.2°F17.3°C 55% 3.1 mph SE5.0 kmh SE 8.0 mph12.9 kmh 29.97 in1014.9 mb 0.00 in0.0 mm 0.00 in0.0 mm 0.00 in0.0 mm
05:20 PM 80.9°F27.2°C 63.9°F17.7°C 56% 2.4 mph SSE3.9 kmh SSE 8.0 mph12.9 kmh 29.97 in1014.9 mb 0.00 in0.0 mm 0.00 in0.0 mm 0.00 in0.0 mm
05:25 PM 80.9°F27.2°C 63.7°F17.6°C 56% 1.0 mph SE1.6 kmh SE 8.0 mph12.9 kmh 29.97 in1014.9 mb 0.00 in0.0 mm 0.00 in0.0 mm 0.00 in0.0 mm
05:30 PM 81.0°F27.2°C 64.5°F18.1°C 57% 1.3 mph SE2.1 kmh SE 8.0 mph12.9 kmh 29.97 in1014.9 mb 0.00 in0.0 mm 0.00 in0.0 mm 0.00 in0.0 mm
05:35 PM 81.0°F27.2°C 64.5°F18.1°C 57% 1.5 mph SE2.4 kmh SE 8.0 mph12.9 kmh 29.97 in1014.9 mb 0.00 in0.0 mm 0.00 in0.0 mm 0.00 in0.0 mm
05:40 PM 81.0°F27.2°C 64.5°F18.1°C 57% 1.7 mph SE2.7 kmh SE 4.0 mph6.4 kmh 29.97 in1014.9 mb 0.00 in0.0 mm 0.00 in0.0 mm 0.00 in0.0 mm
05:45 PM 81.0°F27.2°C 64.5°F18.1°C 57% 2.0 mph SE3.2 kmh SE 4.0 mph6.4 kmh 29.97 in1014.9 mb 0.00 in0.0 mm 0.00 in0.0 mm 0.00 in0.0 mm
05:50 PM 81.0°F27.2°C 64.0°F17.8°C 56% 1.8 mph SE2.9 kmh SE 5.0 mph8.0 kmh 29.97 in1014.9 mb 0.00 in0.0 mm 0.00 in0.0 mm 0.00 in0.0 mm
05:55 PM 80.9°F27.2°C 63.9°F17.7°C 56% 2.1 mph SE3.4 kmh SE 6.0 mph9.7 kmh 29.97 in1014.9 mb 0.00 in0.0 mm 0.00 in0.0 mm 0.00 in0.0 mm
06:00 PM 80.9°F27.2°C 64.5°F18.1°C 57% 1.6 mph SE2.6 kmh SE 6.0 mph9.7 kmh 29.97 in1014.9 mb 0.00 in0.0 mm 0.00 in0.0 mm 0.00 in0.0 mm
06:05 PM 80.8°F27.1°C 64.9°F18.3°C 58% 1.1 mph ESE1.8 kmh ESE 6.0 mph9.7 kmh 29.97 in1014.9 mb 0.00 in0.0 mm 0.00 in0.0 mm 0.00 in0.0 mm
06:10 PM 80.7°F27.1°C 64.8°F18.2°C 58% 1.6 mph SE2.6 kmh SE 6.0 mph9.7 kmh 29.98 in1015.2 mb 0.00 in0.0 mm 0.00 in0.0 mm 0.00 in0.0 mm
06:15 PM 80.5°F26.9°C 64.6°F18.1°C 58% 1.4 mph ESE2.3 kmh ESE 3.0 mph4.8 kmh 29.98 in1015.2 mb 0.00 in0.0 mm 0.00 in0.0 mm 0.00 in0.0 mm
06:20 PM 80.4°F26.9°C 65.7°F18.7°C 61% 1.0 mph SE1.6 kmh SE 3.0 mph4.8 kmh 29.97 in1014.9 mb 0.00 in0.0 mm 0.00 in0.0 mm 0.00 in0.0 mm
06:25 PM 80.2°F26.8°C 65.8°F18.8°C 61% 2.1 mph SE3.4 kmh SE 3.0 mph4.8 kmh 29.97 in1014.9 mb 0.00 in0.0 mm 0.00 in0.0 mm 0.00 in0.0 mm
06:30 PM 80.0°F26.7°C 65.6°F18.7°C 61% 1.6 mph SE2.6 kmh SE 3.0 mph4.8 kmh 29.97 in1014.9 mb 0.00 in0.0 mm 0.00 in0.0 mm 0.00 in0.0 mm
06:35 PM 79.8°F26.6°C 64.4°F18.0°C 59% 3.1 mph ESE5.0 kmh ESE 5.0 mph8.0 kmh 29.96 in1014.6 mb 0.00 in0.0 mm 0.00 in0.0 mm 0.00 in0.0 mm
06:40 PM 79.7°F26.5°C 64.8°F18.2°C 60% 2.0 mph SE3.2 kmh SE 5.0 mph8.0 kmh 29.97 in1014.9 mb 0.00 in0.0 mm 0.00 in0.0 mm 0.00 in0.0 mm
06:45 PM 79.7°F26.5°C 64.6°F18.1°C 60% 1.8 mph SE2.9 kmh SE 5.0 mph8.0 kmh 29.97 in1014.9 mb 0.00 in0.0 mm 0.00 in0.0 mm 0.00 in0.0 mm
06:50 PM 79.6°F26.4°C 64.7°F18.2°C 60% 2.0 mph SE3.2 kmh SE 5.0 mph8.0 kmh 29.97 in1014.9 mb 0.00 in0.0 mm 0.00 in0.0 mm 0.00 in0.0 mm
06:55 PM 79.4°F26.3°C 65.0°F18.3°C 61% 1.9 mph SE3.1 kmh SE 4.0 mph6.4 kmh 29.97 in1014.9 mb 0.00 in0.0 mm 0.00 in0.0 mm 0.00 in0.0 mm
07:00 PM 79.3°F26.3°C 64.9°F18.3°C 61% 2.2 mph SE3.5 kmh SE 5.0 mph8.0 kmh 29.97 in1014.9 mb 0.00 in0.0 mm 0.00 in0.0 mm 0.00 in0.0 mm
07:05 PM 79.2°F26.2°C 65.3°F18.5°C 62% 1.8 mph SE2.9 kmh SE 5.0 mph8.0 kmh 29.97 in1014.9 mb 0.00 in0.0 mm 0.00 in0.0 mm 0.00 in0.0 mm
07:10 PM 79.0°F26.1°C 65.6°F18.7°C 63% 2.2 mph SE3.5 kmh SE 5.0 mph8.0 kmh 29.97 in1014.9 mb 0.00 in0.0 mm 0.00 in0.0 mm 0.00 in0.0 mm
07:15 PM 78.9°F26.1°C 65.5°F18.6°C 63% 2.3 mph SE3.7 kmh SE 5.0 mph8.0 kmh 29.97 in1014.9 mb 0.00 in0.0 mm 0.00 in0.0 mm 0.00 in0.0 mm
07:20 PM 78.8°F26.0°C 65.4°F18.6°C 63% 1.3 mph ESE2.1 kmh ESE 4.0 mph6.4 kmh 29.97 in1014.9 mb 0.00 in0.0 mm 0.00 in0.0 mm 0.00 in0.0 mm
07:25 PM 78.8°F26.0°C 65.8°F18.8°C 64% 1.3 mph ESE2.1 kmh ESE 4.0 mph6.4 kmh 29.97 in1014.9 mb 0.00 in0.0 mm 0.00 in0.0 mm 0.00 in0.0 mm
07:30 PM 78.9°F26.1°C 65.9°F18.8°C 64% 1.3 mph SE2.1 kmh SE 4.0 mph6.4 kmh 29.97 in1014.9 mb 0.00 in0.0 mm 0.00 in0.0 mm 0.00 in0.0 mm
07:35 PM 79.0°F26.1°C 66.0°F18.9°C 64% 1.5 mph NE2.4 kmh NE 4.0 mph6.4 kmh 29.97 in1014.9 mb 0.00 in0.0 mm 0.00 in0.0 mm 0.00 in0.0 mm
07:40 PM 78.9°F26.1°C 66.8°F19.3°C 66% 1.0 mph NE1.6 kmh NE 4.0 mph6.4 kmh 29.98 in1015.2 mb 0.00 in0.0 mm 0.00 in0.0 mm 0.00 in0.0 mm
07:45 PM 78.7°F25.9°C 66.8°F19.3°C 67% Calm Calm 4.0 mph6.4 kmh 29.98 in1015.2 mb 0.00 in0.0 mm 0.00 in0.0 mm 0.00 in0.0 mm
07:50 PM 78.4°F25.8°C 66.8°F19.3°C 67% 1.0 mph NNE1.6 kmh NNE 4.0 mph6.4 kmh 29.99 in1015.6 mb 0.00 in0.0 mm 0.00 in0.0 mm 0.00 in0.0 mm
07:55 PM 78.1°F25.6°C 66.9°F19.4°C 68% 2.1 mph N3.4 kmh N 4.0 mph6.4 kmh 29.99 in1015.6 mb 0.00 in0.0 mm 0.00 in0.0 mm 0.00 in0.0 mm
08:00 PM 77.2°F25.1°C 66.5°F19.2°C 69% 3.4 mph N5.5 kmh N 11.0 mph17.7 kmh 29.99 in1015.6 mb 0.00 in0.0 mm 0.00 in0.0 mm 0.00 in0.0 mm
08:05 PM 76.3°F24.6°C 65.8°F18.8°C 70% 4.7 mph NNW7.6 kmh NNW 13.0 mph20.9 kmh 30.00 in1015.9 mb 0.00 in0.0 mm 0.00 in0.0 mm 0.00 in0.0 mm
08:10 PM 75.8°F24.3°C 65.5°F18.6°C 70% 3.4 mph NW5.5 kmh NW 13.0 mph20.9 kmh 30.01 in1016.3 mb 0.00 in0.0 mm 0.00 in0.0 mm 0.00 in0.0 mm
08:15 PM 75.5°F24.2°C 65.2°F18.4°C 70% 2.5 mph NW4.0 kmh NW 13.0 mph20.9 kmh 30.01 in1016.3 mb 0.00 in0.0 mm 0.00 in0.0 mm 0.00 in0.0 mm
08:20 PM 75.2°F24.0°C 65.3°F18.5°C 71% 3.1 mph N5.0 kmh N 13.0 mph20.9 kmh 30.01 in1016.3 mb 0.00 in0.0 mm 0.00 in0.0 mm 0.00 in0.0 mm
08:25 PM 74.8°F23.8°C 65.0°F18.3°C 71% 3.0 mph NNW4.8 kmh NNW 12.0 mph19.3 kmh 30.02 in1016.6 mb 0.00 in0.0 mm 0.00 in0.0 mm 0.00 in0.0 mm
08:30 PM 74.2°F23.4°C 64.2°F17.9°C 71% 4.5 mph NW7.2 kmh NW 10.0 mph16.1 kmh 30.02 in1016.6 mb 0.00 in0.0 mm 0.00 in0.0 mm 0.00 in0.0 mm
08:35 PM 73.5°F23.1°C 64.1°F17.8°C 72% 2.7 mph N4.3 kmh N 12.0 mph19.3 kmh 30.03 in1016.9 mb 0.00 in0.0 mm 0.00 in0.0 mm 0.00 in0.0 mm
08:40 PM 73.0°F22.8°C 64.0°F17.8°C 73% 5.5 mph NNW8.9 kmh NNW 12.0 mph19.3 kmh 30.03 in1016.9 mb 0.00 in0.0 mm 0.00 in0.0 mm 0.00 in0.0 mm
08:44 PM 72.1°F22.3°C 64.3°F17.9°C 76% 3.2 mph NW5.1 kmh NW 12.0 mph19.3 kmh 30.04 in1017.3 mb 0.00 in0.0 mm 0.00 in0.0 mm 0.00 in0.0 mm
08:49 PM 70.8°F21.6°C 64.4°F18.0°C 80% 3.2 mph NW5.1 kmh NW 12.0 mph19.3 kmh 30.04 in1017.3 mb 0.02 in0.5 mm 0.24 in6.1 mm 0.02 in0.5 mm
08:54 PM 69.7°F20.9°C 64.6°F18.1°C 84% 1.5 mph W2.4 kmh W 11.0 mph17.7 kmh 30.05 in1017.6 mb 0.03 in0.8 mm 0.12 in3.0 mm 0.03 in0.8 mm
08:59 PM 69.0°F20.6°C 64.3°F17.9°C 85% 3.2 mph NW5.1 kmh NW 9.0 mph14.5 kmh 30.05 in1017.6 mb 0.03 in0.8 mm 0.00 in0.0 mm 0.03 in0.8 mm
09:04 PM 68.6°F20.3°C 64.6°F18.1°C 87% 1.7 mph W2.7 kmh W 9.0 mph14.5 kmh 30.05 in1017.6 mb 0.04 in1.0 mm 0.01 in0.3 mm 0.04 in1.0 mm
09:09 PM 68.2°F20.1°C 64.5°F18.1°C 88% 2.2 mph W3.5 kmh W 9.0 mph14.5 kmh 30.05 in1017.6 mb 0.05 in1.3 mm 0.12 in3.0 mm 0.05 in1.3 mm
09:14 PM 67.9°F19.9°C 64.8°F18.2°C 90% 1.9 mph W3.1 kmh W 9.0 mph14.5 kmh 30.05 in1017.6 mb 0.06 in1.5 mm 0.12 in3.0 mm 0.06 in1.5 mm
09:19 PM 67.5°F19.7°C 64.8°F18.2°C 91% 1.2 mph W1.9 kmh W 6.0 mph9.7 kmh 30.05 in1017.6 mb 0.07 in1.8 mm 0.12 in3.0 mm 0.07 in1.8 mm
09:24 PM 67.2°F19.6°C 64.5°F18.1°C 91% 2.3 mph NW3.7 kmh NW 6.0 mph9.7 kmh 30.05 in1017.6 mb 0.08 in2.0 mm 0.12 in3.0 mm 0.08 in2.0 mm
09:29 PM 67.0°F19.4°C 64.6°F18.1°C 92% 2.6 mph W4.2 kmh W 6.0 mph9.7 kmh 30.05 in1017.6 mb 0.09 in2.3 mm 0.12 in3.0 mm 0.09 in2.3 mm
09:34 PM 66.8°F19.3°C 64.7°F18.2°C 93% 1.7 mph WNW2.7 kmh WNW 6.0 mph9.7 kmh 30.05 in1017.6 mb 0.09 in2.3 mm 0.00 in0.0 mm 0.09 in2.3 mm
09:39 PM 66.7°F19.3°C 64.6°F18.1°C 93% 2.9 mph WNW4.7 kmh WNW 6.0 mph9.7 kmh 30.05 in1017.6 mb 0.10 in2.5 mm 0.12 in3.0 mm 0.10 in2.5 mm
09:44 PM 66.6°F19.2°C 64.5°F18.1°C 93% 1.4 mph NW2.3 kmh NW 6.0 mph9.7 kmh 30.05 in1017.6 mb 0.11 in2.8 mm 0.12 in3.0 mm 0.11 in2.8 mm
09:49 PM 66.5°F19.2°C 64.7°F18.2°C 94% 2.3 mph NW3.7 kmh NW 6.0 mph9.7 kmh 30.05 in1017.6 mb 0.10 in2.5 mm 0.00 in0.0 mm 0.12 in3.0 mm
09:54 PM 66.4°F19.1°C 64.6°F18.1°C 94% 1.0 mph NW1.6 kmh NW 6.0 mph9.7 kmh 30.04 in1017.3 mb 0.09 in2.3 mm 0.00 in0.0 mm 0.12 in3.0 mm
09:59 PM 66.4°F19.1°C 64.6°F18.1°C 94% 1.6 mph NW2.6 kmh NW 5.0 mph8.0 kmh 30.04 in1017.3 mb 0.09 in2.3 mm 0.00 in0.0 mm 0.12 in3.0 mm
10:04 PM 66.4°F19.1°C 64.6°F18.1°C 94% 1.0 mph W1.6 kmh W 5.0 mph8.0 kmh 30.04 in1017.3 mb 0.08 in2.0 mm 0.00 in0.0 mm 0.12 in3.0 mm
10:09 PM 66.5°F19.2°C 64.7°F18.2°C 94% 1.4 mph NE2.3 kmh NE 4.0 mph6.4 kmh 30.03 in1016.9 mb 0.08 in2.0 mm 0.00 in0.0 mm 0.13 in3.3 mm
10:14 PM 66.4°F19.1°C 64.6°F18.1°C 94% 1.5 mph NE2.4 kmh NE 3.0 mph4.8 kmh 30.03 in1016.9 mb 0.07 in1.8 mm 0.00 in0.0 mm 0.13 in3.3 mm
10:19 PM 66.3°F19.1°C 64.5°F18.1°C 94% 1.1 mph ENE1.8 kmh ENE 3.0 mph4.8 kmh 30.03 in1016.9 mb 0.06 in1.5 mm 0.00 in0.0 mm 0.13 in3.3 mm
10:24 PM 66.3°F19.1°C 64.8°F18.2°C 95% 1.3 mph E2.1 kmh E 3.0 mph4.8 kmh 30.02 in1016.6 mb 0.05 in1.3 mm 0.00 in0.0 mm 0.13 in3.3 mm
10:29 PM 66.3°F19.1°C 64.8°F18.2°C 95% 2.7 mph E4.3 kmh E 5.0 mph8.0 kmh 30.02 in1016.6 mb 0.04 in1.0 mm 0.00 in0.0 mm 0.13 in3.3 mm
10:34 PM 66.3°F19.1°C 64.8°F18.2°C 95% 1.8 mph E2.9 kmh E 6.0 mph9.7 kmh 30.02 in1016.6 mb 0.04 in1.0 mm 0.00 in0.0 mm 0.13 in3.3 mm
10:39 PM 66.3°F19.1°C 64.8°F18.2°C 95% 1.6 mph NE2.6 kmh NE 6.0 mph9.7 kmh 30.02 in1016.6 mb 0.03 in0.8 mm 0.00 in0.0 mm 0.13 in3.3 mm
10:44 PM 66.2°F19.0°C 64.7°F18.2°C 95% 2.0 mph E3.2 kmh E 6.0 mph9.7 kmh 30.02 in1016.6 mb 0.03 in0.8 mm 0.00 in0.0 mm 0.14 in3.6 mm
10:49 PM 66.1°F18.9°C 64.6°F18.1°C 95% 3.7 mph E6.0 kmh E 6.0 mph9.7 kmh 30.02 in1016.6 mb 0.02 in0.5 mm 0.00 in0.0 mm 0.14 in3.6 mm
10:54 PM 66.1°F18.9°C 64.6°F18.1°C 95% 1.2 mph E1.9 kmh E 6.0 mph9.7 kmh 30.02 in1016.6 mb 0.02 in0.5 mm 0.00 in0.0 mm 0.14 in3.6 mm
10:59 PM 66.1°F18.9°C 64.6°F18.1°C 95% 1.9 mph E3.1 kmh E 6.0 mph9.7 kmh 30.02 in1016.6 mb 0.02 in0.5 mm 0.00 in0.0 mm 0.14 in3.6 mm
11:04 PM 66.0°F18.9°C 64.8°F18.2°C 96% 3.0 mph E4.8 kmh E 6.0 mph9.7 kmh 30.02 in1016.6 mb 0.02 in0.5 mm 0.00 in0.0 mm 0.14 in3.6 mm
11:09 PM 66.0°F18.9°C 64.8°F18.2°C 96% 2.9 mph E4.7 kmh E 5.0 mph8.0 kmh 30.01 in1016.3 mb 0.01 in0.3 mm 0.00 in0.0 mm 0.14 in3.6 mm
11:14 PM 66.0°F18.9°C 64.8°F18.2°C 96% 2.6 mph E4.2 kmh E 7.0 mph11.3 kmh 30.00 in1015.9 mb 0.01 in0.3 mm 0.00 in0.0 mm 0.14 in3.6 mm
11:19 PM 66.0°F18.9°C 64.8°F18.2°C 96% 5.0 mph E8.0 kmh E 8.0 mph12.9 kmh 29.99 in1015.6 mb 0.01 in0.3 mm 0.00 in0.0 mm 0.14 in3.6 mm
11:24 PM 66.0°F18.9°C 64.8°F18.2°C 96% 3.6 mph ESE5.8 kmh ESE 8.0 mph12.9 kmh 29.98 in1015.2 mb 0.01 in0.3 mm 0.00 in0.0 mm 0.14 in3.6 mm
11:29 PM 66.0°F18.9°C 64.8°F18.2°C 96% 4.0 mph E6.4 kmh E 8.0 mph12.9 kmh 29.98 in1015.2 mb 0.01 in0.3 mm 0.00 in0.0 mm 0.14 in3.6 mm
11:34 PM 66.0°F18.9°C 64.8°F18.2°C 96% 2.8 mph E4.5 kmh E 8.0 mph12.9 kmh 29.97 in1014.9 mb 0.01 in0.3 mm 0.00 in0.0 mm 0.14 in3.6 mm
11:39 PM 66.0°F18.9°C 64.8°F18.2°C 96% 2.3 mph E3.7 kmh E 8.0 mph12.9 kmh 29.98 in1015.2 mb 0.01 in0.3 mm 0.00 in0.0 mm 0.14 in3.6 mm
11:44 PM 66.0°F18.9°C 64.8°F18.2°C 96% 1.0 mph E1.6 kmh E 8.0 mph12.9 kmh 30.00 in1015.9 mb 0.00 in0.0 mm 0.00 in0.0 mm 0.14 in3.6 mm
11:49 PM 66.0°F18.9°C 64.8°F18.2°C 96% 1.5 mph ENE2.4 kmh ENE 8.0 mph12.9 kmh 30.01 in1016.3 mb 0.00 in0.0 mm 0.00 in0.0 mm 0.14 in3.6 mm
11:54 PM 66.1°F18.9°C 64.9°F18.3°C 96% 1.7 mph E2.7 kmh E 5.0 mph8.0 kmh 30.01 in1016.3 mb 0.00 in0.0 mm 0.00 in0.0 mm 0.14 in3.6 mm
11:59 PM 66.3°F19.1°C 65.1°F18.4°C 96% 1.0 mph SE1.6 kmh SE 5.0 mph8.0 kmh 30.01 in1016.3 mb 0.00 in0.0 mm 0.00 in0.0 mm 0.14 in3.6 mm